Rysy — C6ZA3 — position and weather

sailwx.info

Track history (hours):
 
Tides and Currents Weather Stations Pressure Air Temp Water Temp Dewpoint Dewpoint Depression Visibility Wind Speed Wind Dir Waves Ship Positions

Rysy

Last reported at 2015-Apr-02 04:14 UTC. Time now 2015-Apr-22 01:47 UTC.
Position N 01°57' E 102°16'.
Warning: this ship's position is 19 days out of date.

Length 229 m; draft 14.9 m.

Type: Cargo ship. MMSI: 311051200.

Date/timePositionNaut miles runAvg speedWind from/ knotsBaromVisibWave heightAir tempDewpointWater temp
2015-Apr-02 04:14N 01°57' E 102°16'812.3
2015-Apr-02 03:33N 01°54' E 102°23'1212.0
2015-Apr-02 02:32N 01°49' E 102°34'1211.3
2015-Apr-02 01:30N 01°44' E 102°45'1210.5
2015-Apr-02 00:21N 01°39' E 102°56'5711.4
2015-Apr-01 19:22N 01°09' E 103°44'1011.9
2015-Apr-01 18:31N 01°13' E 103°53'1111.3
2015-Apr-01 17:33N 01°17' E 104°04'2 0.3
2015-Apr-01 11:28N 01°18' E 104°04'0 0.1
2015-Apr-01 07:28N 01°18' E 104°04'0 0.1
2015-Apr-01 06:10N 01°18' E 104°04'0 0.0
2015-Apr-01 03:22N 01°18' E 104°04'1 1.0
2015-Apr-01 02:32N 01°17' E 104°04'8 6.7
2015-Apr-01 01:20N 01°17' E 104°12'  
Track history (hours):
 
Tides and Currents Weather Stations Pressure Air Temp Water Temp Dewpoint Dewpoint Depression Visibility Wind Speed Wind Dir Waves Ship Positions

Rysy

Last reported at 2015-Apr-02 04:14 UTC. Time now 2015-Apr-22 01:47 UTC.
Position N 01°57' E 102°16'.
Warning: this ship's position is 19 days out of date.

Length 229 m; draft 14.9 m.

Type: Cargo ship. MMSI: 311051200.

Date/timePositionNaut miles runAvg speedWind from/ knotsBaromVisibWave heightAir tempDewpointWater temp
2015-Apr-02 04:14N 01°57' E 102°16'812.3
2015-Apr-02 03:33N 01°54' E 102°23'1212.0
2015-Apr-02 02:32N 01°49' E 102°34'1211.3
2015-Apr-02 01:30N 01°44' E 102°45'1210.5
2015-Apr-02 00:21N 01°39' E 102°56'5711.4
2015-Apr-01 19:22N 01°09' E 103°44'1011.9
2015-Apr-01 18:31N 01°13' E 103°53'1111.3
2015-Apr-01 17:33N 01°17' E 104°04'2 0.3
2015-Apr-01 11:28N 01°18' E 104°04'0 0.1
2015-Apr-01 07:28N 01°18' E 104°04'0 0.1
2015-Apr-01 06:10N 01°18' E 104°04'0 0.0
2015-Apr-01 03:22N 01°18' E 104°04'1 1.0
2015-Apr-01 02:32N 01°17' E 104°04'8 6.7
2015-Apr-01 01:20N 01°17' E 104°12'  

Dump ship's entire track history